createdAt,value
2022-09-12T00:00:23.067Z,101684.50
2022-09-12T00:02:53.827Z,101674.94
2022-09-12T00:05:20.429Z,101683.72
2022-09-12T00:07:46.847Z,101678.56
2022-09-12T00:10:13.689Z,101674.16
2022-09-12T00:12:40.222Z,101677.78
2022-09-12T00:15:07.343Z,101676.09
2022-09-12T00:17:35.343Z,101668.25
2022-09-12T00:20:02.307Z,101670.09
2022-09-12T00:22:28.745Z,101673.75
2022-09-12T00:24:55.156Z,101675.56
2022-09-12T00:27:21.525Z,101676.50
2022-09-12T00:29:48.005Z,101672.28
2022-09-12T00:32:14.344Z,101674.91
2022-09-12T00:34:40.763Z,101670.59
2022-09-12T00:37:07.188Z,101661.03
2022-09-12T00:39:33.711Z,101666.31
2022-09-12T00:42:00.141Z,101661.94
2022-09-12T00:44:26.535Z,101663.81
2022-09-12T00:46:55.220Z,101668.44
2022-09-12T00:49:32.677Z,101658.97
2022-09-12T00:52:04.819Z,101653.75
2022-09-12T00:54:38.502Z,101653.06
2022-09-12T00:57:09.468Z,101652.16
2022-09-12T00:59:43.635Z,101650.38
2022-09-12T01:02:11.421Z,101654.75
2022-09-12T01:04:39.590Z,101657.47
2022-09-12T01:07:07.422Z,101650.50
2022-09-12T01:09:34.368Z,101647.91
2022-09-12T01:12:02.570Z,101649.78
2022-09-12T01:14:31.138Z,101646.38
2022-09-12T01:16:57.890Z,101643.78
2022-09-12T01:20:02.732Z,101647.50
2022-09-12T01:22:43.760Z,101643.88
2022-09-12T01:25:31.832Z,101647.56
2022-09-12T01:28:51.036Z,101647.59
2022-09-12T01:31:29.563Z,101637.88
2022-09-12T01:34:22.424Z,101636.31
2022-09-12T01:37:02.067Z,101644.38
2022-09-12T01:39:34.925Z,101635.56
2022-09-12T01:42:15.163Z,101633.97
2022-09-12T01:44:52.698Z,101630.47
2022-09-12T01:47:41.629Z,101633.25
2022-09-12T01:50:19.031Z,101630.59
2022-09-12T01:53:00.924Z,101629.00
2022-09-12T01:55:44.047Z,101627.28
2022-09-12T01:58:21.623Z,101621.19
2022-09-12T02:01:00.200Z,101630.06
2022-09-12T02:03:37.959Z,101627.44
2022-09-12T02:06:11.488Z,101627.56
2022-09-12T02:08:47.248Z,101618.06
2022-09-12T02:11:13.871Z,101621.56
2022-09-12T02:13:55.898Z,101616.44
2022-09-12T02:16:29.392Z,101616.44
2022-09-12T02:19:02.940Z,101619.16
2022-09-12T02:21:32.976Z,101615.72
2022-09-12T02:24:02.880Z,101607.81
2022-09-12T02:26:35.344Z,101606.13
2022-09-12T02:29:03.221Z,101610.53
2022-09-12T02:31:44.803Z,101605.38
2022-09-12T02:34:56.498Z,101607.22
2022-09-12T02:37:37.762Z,101608.03
2022-09-12T02:40:06.896Z,101606.31
2022-09-12T02:42:33.399Z,101603.78
2022-09-12T02:44:59.739Z,101597.63
2022-09-12T02:47:53.153Z,101603.97
2022-09-12T02:50:19.989Z,101595.91
2022-09-12T02:52:46.597Z,101595.06
2022-09-12T02:55:14.524Z,101596.97
2022-09-12T02:57:40.913Z,101587.34
2022-09-12T03:00:08.364Z,101590.84
2022-09-12T03:02:58.330Z,101589.22
2022-09-12T03:05:40.080Z,101596.28
2022-09-12T03:08:37.299Z,101592.06
2022-09-12T03:11:32.495Z,101600.16
2022-09-12T03:14:24.068Z,101599.34
2022-09-12T03:17:13.519Z,101600.25
2022-09-12T03:19:59.584Z,101593.31
2022-09-12T03:22:33.495Z,101590.81
2022-09-12T03:25:05.968Z,101590.88
2022-09-12T03:27:36.710Z,101591.81
2022-09-12T03:30:05.896Z,101599.88
2022-09-12T03:32:47.416Z,101600.88
2022-09-12T03:35:15.086Z,101601.72
2022-09-12T03:37:41.866Z,101601.75
2022-09-12T03:40:12.067Z,101602.66
2022-09-12T03:42:39.185Z,101609.72
2022-09-12T03:45:06.862Z,101605.34
2022-09-12T03:47:33.667Z,101602.72
2022-09-12T03:50:00.218Z,101607.19
2022-09-12T03:52:26.653Z,101605.53
2022-09-12T03:54:52.974Z,101600.28
2022-09-12T03:57:19.516Z,101597.66
2022-09-12T03:59:45.851Z,101607.34
2022-09-12T04:02:13.512Z,101596.81
2022-09-12T04:04:43.299Z,101603.00
2022-09-12T04:07:11.185Z,101600.47
2022-09-12T04:09:37.605Z,101600.69
2022-09-12T04:12:04.287Z,101599.16
2022-09-12T04:14:30.727Z,101600.88
2022-09-12T04:16:57.228Z,101598.25
2022-09-12T04:19:23.670Z,101597.31
2022-09-12T04:21:50.100Z,101597.25
2022-09-12T04:24:16.679Z,101594.63
2022-09-12T04:26:43.246Z,101601.69
2022-09-12T04:29:12.450Z,101589.34
2022-09-12T04:31:39.392Z,101595.47
2022-09-12T04:34:07.019Z,101589.34
2022-09-12T04:36:34.333Z,101584.94
2022-09-12T04:39:01.859Z,101591.97
2022-09-12T04:41:30.983Z,101594.63
2022-09-12T04:44:03.379Z,101592.91
2022-09-12T04:46:35.201Z,101587.63
2022-09-12T04:49:01.970Z,101591.06
2022-09-12T04:51:33.939Z,101590.28
2022-09-12T04:54:02.825Z,101592.84
2022-09-12T04:56:29.775Z,101590.22
2022-09-12T04:59:01.096Z,101596.34
2022-09-12T05:01:29.775Z,101588.38
2022-09-12T05:03:57.823Z,101589.22
2022-09-12T05:06:28.099Z,101589.22
2022-09-12T05:08:56.003Z,101590.94
2022-09-12T05:11:32.994Z,101595.34
2022-09-12T05:14:08.119Z,101596.19
2022-09-12T05:16:34.657Z,101597.06
2022-09-12T05:19:01.077Z,101591.81
2022-09-12T05:21:27.897Z,101593.56
2022-09-12T05:23:55.872Z,101589.16
2022-09-12T05:26:23.297Z,101584.81
2022-09-12T05:28:51.322Z,101585.66
2022-09-12T05:31:17.727Z,101586.50
2022-09-12T05:33:48.157Z,101592.63
2022-09-12T05:36:21.086Z,101588.22
2022-09-12T05:38:47.921Z,101582.88
2022-09-12T05:41:24.720Z,101591.59
2022-09-12T05:43:56.216Z,101590.72
2022-09-12T05:46:28.070Z,101596.91
2022-09-12T05:48:56.692Z,101595.09
2022-09-12T05:51:28.333Z,101595.03
2022-09-12T05:53:59.857Z,101588.84
2022-09-12T05:56:28.755Z,101593.16
2022-09-12T05:58:58.620Z,101601.00
2022-09-12T06:01:27.006Z,101590.44
2022-09-12T06:03:55.701Z,101595.84
2022-09-12T06:06:24.612Z,101604.69
2022-09-12T06:08:53.274Z,101606.41
2022-09-12T06:11:22.832Z,101611.69
2022-09-12T06:13:51.125Z,101610.81
2022-09-12T06:16:20.015Z,101608.13
2022-09-12T06:18:51.781Z,101601.13
2022-09-12T06:21:18.622Z,101599.16
2022-09-12T06:23:48.065Z,101604.22
2022-09-12T06:26:16.592Z,101608.47
2022-09-12T06:28:47.558Z,101607.66
2022-09-12T06:31:20.433Z,101612.00
2022-09-12T06:33:49.477Z,101617.97
2022-09-12T06:36:22.388Z,101596.16
2022-09-12T06:38:54.550Z,101599.50
2022-09-12T06:41:20.981Z,101608.16
2022-09-12T06:43:47.328Z,101609.06
2022-09-12T06:46:13.749Z,101598.50
2022-09-12T06:48:42.119Z,101602.88
2022-09-12T06:51:20.153Z,101594.78
2022-09-12T06:53:47.703Z,101595.28
2022-09-12T06:56:19.309Z,101594.25
2022-09-12T06:58:47.364Z,101593.03
2022-09-12T07:01:18.947Z,101587.53
2022-09-12T07:03:50.564Z,101594.47
2022-09-12T07:06:19.445Z,101590.72
2022-09-12T07:08:46.628Z,101596.66
2022-09-12T07:11:17.180Z,101597.59
2022-09-12T07:13:45.806Z,101602.78
2022-09-12T07:16:17.279Z,101601.72
2022-09-12T07:19:03.266Z,101597.97
2022-09-12T07:21:30.258Z,101600.31
2022-09-12T07:24:00.178Z,101596.63
2022-09-12T07:26:28.927Z,101594.72
2022-09-12T07:29:08.237Z,101589.31
2022-09-12T07:31:44.203Z,101592.66
2022-09-12T07:34:11.139Z,101587.34
2022-09-12T07:36:37.695Z,101585.25
2022-09-12T07:39:04.137Z,101582.38
2022-09-12T07:41:33.946Z,101579.69
2022-09-12T07:44:02.146Z,101579.56
2022-09-12T07:46:30.345Z,101584.66
2022-09-12T07:48:58.139Z,101578.22
2022-09-12T07:51:25.720Z,101583.25
2022-09-12T07:53:52.435Z,101582.47
2022-09-12T07:56:19.870Z,101583.00
2022-09-12T07:58:46.850Z,101575.56
2022-09-12T08:01:24.782Z,101574.34
2022-09-12T08:03:55.286Z,101578.28
2022-09-12T08:06:26.246Z,101565.34
2022-09-12T08:08:54.901Z,101571.72
2022-09-12T08:11:22.923Z,101576.53
2022-09-12T08:13:55.442Z,101570.94
2022-09-12T08:16:25.246Z,101584.72
2022-09-12T08:18:51.928Z,101583.44
2022-09-12T08:21:20.987Z,101581.88
2022-09-12T08:23:51.392Z,101579.72
2022-09-12T08:26:17.964Z,101573.81
2022-09-12T08:28:45.680Z,101577.59
2022-09-12T08:31:15.215Z,101571.66
2022-09-12T08:33:41.779Z,101581.28
2022-09-12T08:36:11.093Z,101580.47
2022-09-12T08:38:42.811Z,101573.66
2022-09-12T08:41:20.310Z,101573.19
2022-09-12T08:44:09.183Z,101567.16
2022-09-12T08:46:44.652Z,101570.81
2022-09-12T08:49:15.270Z,101571.81
2022-09-12T08:51:42.575Z,101570.13
2022-09-12T08:54:23.684Z,101571.84
2022-09-12T08:56:52.108Z,101573.66
2022-09-12T08:59:18.468Z,101561.31
2022-09-12T09:01:45.562Z,101559.44
2022-09-12T09:04:29.907Z,101554.28
2022-09-12T09:07:18.467Z,101563.19
2022-09-12T09:10:08.610Z,101557.56
2022-09-12T09:13:05.634Z,101552.66
2022-09-12T09:15:48.574Z,101551.28
2022-09-12T09:18:28.767Z,101549.91
2022-09-12T09:21:41.164Z,101550.06
2022-09-12T09:24:11.431Z,101547.41
2022-09-12T09:26:53.135Z,101544.16
2022-09-12T09:29:23.775Z,101528.69
2022-09-12T09:31:54.558Z,101533.78
2022-09-12T09:34:23.564Z,101532.88
2022-09-12T09:37:10.328Z,101530.03
2022-09-12T09:40:06.505Z,101519.78
2022-09-12T09:42:45.630Z,101520.38
2022-09-12T09:45:16.778Z,101528.88
2022-09-12T09:47:54.388Z,101526.75
2022-09-12T09:50:20.796Z,101519.94
2022-09-12T09:52:49.305Z,101520.25
2022-09-12T09:55:21.855Z,101520.94
2022-09-12T09:57:48.482Z,101517.41
2022-09-12T10:00:27.607Z,101509.59
2022-09-12T10:03:04.761Z,101525.38
2022-09-12T10:05:35.638Z,101516.63
2022-09-12T10:08:03.627Z,101516.22
2022-09-12T10:10:29.996Z,101508.88
2022-09-12T10:13:24.533Z,101513.97
2022-09-12T10:16:01.046Z,101507.66
2022-09-12T10:18:39.807Z,101512.53
2022-09-12T10:21:31.792Z,101496.19
2022-09-12T10:24:23.057Z,101505.91
2022-09-12T10:27:09.273Z,101498.81
2022-09-12T10:29:48.416Z,101500.38
2022-09-12T10:32:28.579Z,101494.06
2022-09-12T10:35:05.772Z,101494.16
2022-09-12T10:37:38.064Z,101483.63
2022-09-12T10:40:08.009Z,101489.56
2022-09-12T10:42:48.052Z,101491.69
2022-09-12T10:45:32.082Z,101489.84
2022-09-12T10:48:04.123Z,101482.84
2022-09-12T10:50:43.372Z,101480.16
2022-09-12T10:53:25.131Z,101483.00
2022-09-12T10:56:12.263Z,101482.44
2022-09-12T10:59:03.573Z,101480.13
2022-09-12T11:01:36.343Z,101460.78
2022-09-12T11:04:43.006Z,101472.44
2022-09-12T11:07:26.926Z,101464.34
2022-09-12T11:10:14.485Z,101469.16
2022-09-12T11:12:57.478Z,101463.09
2022-09-12T11:15:45.892Z,101462.06
2022-09-12T11:18:40.196Z,101465.69
2022-09-12T11:21:21.464Z,101464.50
2022-09-12T11:24:11.733Z,101457.28
2022-09-12T11:27:00.148Z,101455.50
2022-09-12T11:29:38.538Z,101454.41
2022-09-12T11:32:42.332Z,101456.88
2022-09-12T11:35:18.186Z,101450.03
2022-09-12T11:38:30.495Z,101446.22
2022-09-12T11:41:02.393Z,101446.09
2022-09-12T11:43:40.248Z,101436.34
2022-09-12T11:46:14.079Z,101444.88
2022-09-12T11:48:57.693Z,101442.56
2022-09-12T11:51:29.459Z,101442.66
2022-09-12T11:54:23.232Z,101441.56
2022-09-12T11:56:57.330Z,101435.34
2022-09-12T11:59:52.614Z,101433.63
2022-09-12T12:03:00.266Z,101428.41
2022-09-12T12:05:35.610Z,101433.75
2022-09-12T12:08:05.233Z,101437.97
2022-09-12T12:10:51.403Z,101436.41
2022-09-12T12:13:23.573Z,101428.69
2022-09-12T12:15:55.005Z,101430.41
2022-09-12T12:18:32.684Z,101421.16
2022-09-12T12:21:40.224Z,101409.63
2022-09-12T12:24:09.510Z,101412.59
2022-09-12T12:26:38.965Z,101411.00
2022-09-12T12:29:18.010Z,101408.16
2022-09-12T12:31:59.961Z,101424.13
2022-09-12T12:34:28.344Z,101418.63
2022-09-12T12:36:55.290Z,101414.53
2022-09-12T12:39:45.937Z,101407.56
2022-09-12T12:42:32.213Z,101402.34
2022-09-12T12:45:00.156Z,101393.41
2022-09-12T12:47:32.935Z,101400.53
2022-09-12T12:50:05.448Z,101390.47
2022-09-12T12:52:43.160Z,101392.69
2022-09-12T12:55:16.290Z,101394.34
2022-09-12T12:57:58.650Z,101391.44
2022-09-12T13:00:25.165Z,101395.50
2022-09-12T13:03:09.583Z,101388.66
2022-09-12T13:05:42.686Z,101391.97
2022-09-12T13:08:18.093Z,101391.00
2022-09-12T13:10:58.028Z,101385.22
2022-09-12T13:13:34.168Z,101378.97
2022-09-12T13:16:00.618Z,101380.00
2022-09-12T13:18:40.744Z,101372.50
2022-09-12T13:21:21.627Z,101367.44
2022-09-12T13:24:04.210Z,101362.34
2022-09-12T13:26:40.301Z,101358.66
2022-09-12T13:29:17.977Z,101350.38
2022-09-12T13:31:47.903Z,101348.34
2022-09-12T13:34:20.979Z,101345.34
2022-09-12T13:37:24.905Z,101337.16
2022-09-12T13:40:19.682Z,101338.09
2022-09-12T13:42:49.551Z,101330.94
2022-09-12T13:45:20.852Z,101331.78
2022-09-12T13:47:55.359Z,101322.41
2022-09-12T13:50:27.126Z,101321.13
2022-09-12T13:53:00.268Z,101319.53
2022-09-12T13:55:41.447Z,101320.84
2022-09-12T13:58:17.060Z,101314.75
2022-09-12T14:00:43.538Z,101308.34
2022-09-12T14:03:49.647Z,101304.44
2022-09-12T14:06:18.791Z,101311.88
2022-09-12T14:08:47.978Z,101302.03
2022-09-12T14:11:25.157Z,101303.84
2022-09-12T14:13:52.548Z,101309.06
2022-09-12T14:16:23.838Z,101307.97
2022-09-12T14:18:51.827Z,101303.09
2022-09-12T14:21:32.589Z,101300.06
2022-09-12T14:24:00.683Z,101292.31
2022-09-12T14:26:32.408Z,101294.94
2022-09-12T14:29:00.378Z,101291.75
2022-09-12T14:31:32.344Z,101294.16
2022-09-12T14:34:14.782Z,101290.38
2022-09-12T14:36:44.076Z,101295.97
2022-09-12T14:39:39.690Z,101297.38
2022-09-12T14:42:17.904Z,101286.97
2022-09-12T14:44:58.561Z,101287.13
2022-09-12T14:47:27.534Z,101289.59
2022-09-12T14:49:54.494Z,101285.31
2022-09-12T14:52:29.191Z,101285.44
2022-09-12T14:55:00.190Z,101273.03
2022-09-12T14:57:42.188Z,101275.59
2022-09-12T15:00:11.873Z,101274.19
2022-09-12T15:02:39.384Z,101273.34
2022-09-12T15:05:08.534Z,101272.00
2022-09-12T15:07:53.722Z,101265.63
2022-09-12T15:10:27.686Z,101264.66
2022-09-12T15:13:09.396Z,101252.16
2022-09-12T15:15:37.809Z,101253.50
2022-09-12T15:18:06.736Z,101239.47
2022-09-12T15:20:35.990Z,101243.59
2022-09-12T15:23:02.616Z,101241.78
2022-09-12T15:25:29.048Z,101239.00
2022-09-12T15:27:56.407Z,101244.81
2022-09-12T15:30:22.754Z,101237.81
2022-09-12T15:32:49.221Z,101239.66
2022-09-12T15:35:22.469Z,101235.50
2022-09-12T15:37:49.600Z,101229.41
2022-09-12T15:40:16.296Z,101230.75
2022-09-12T15:42:42.770Z,101229.78
2022-09-12T15:45:18.397Z,101226.38
2022-09-12T15:47:45.030Z,101223.94
2022-09-12T15:50:11.564Z,101219.81
2022-09-12T15:52:38.032Z,101222.97
2022-09-12T15:55:05.849Z,101222.97
2022-09-12T15:57:32.207Z,101219.31
2022-09-12T15:59:58.779Z,101213.09
2022-09-12T16:02:25.198Z,101213.47
2022-09-12T16:04:54.607Z,101208.59
2022-09-12T16:07:21.524Z,101204.81
2022-09-12T16:09:48.043Z,101212.19
2022-09-12T16:12:14.419Z,101202.91
2022-09-12T16:14:40.800Z,101200.34
2022-09-12T16:17:07.979Z,101205.06
2022-09-12T16:19:35.055Z,101203.72
2022-09-12T16:22:01.517Z,101201.50
2022-09-12T16:24:27.926Z,101197.06
2022-09-12T16:26:56.865Z,101194.78
2022-09-12T16:29:26.956Z,101199.25
2022-09-12T16:31:53.387Z,101185.06
2022-09-12T16:34:19.751Z,101190.63
2022-09-12T16:36:46.985Z,101192.16
2022-09-12T16:39:13.488Z,101189.19
2022-09-12T16:41:42.516Z,101188.06
2022-09-12T16:44:10.092Z,101178.03
2022-09-12T16:46:36.584Z,101184.91
2022-09-12T16:49:05.892Z,101181.94
2022-09-12T16:51:35.742Z,101181.53
2022-09-12T16:54:02.437Z,101188.91
2022-09-12T16:56:28.821Z,101182.94
2022-09-12T16:58:55.629Z,101176.16
2022-09-12T17:01:24.849Z,101187.13
2022-09-12T17:03:56.468Z,101179.47
2022-09-12T17:06:23.398Z,101167.09
2022-09-12T17:08:52.080Z,101175.31
2022-09-12T17:11:21.684Z,101167.53
2022-09-12T17:14:04.389Z,101157.19
2022-09-12T17:16:35.880Z,101161.78
2022-09-12T17:19:03.156Z,101150.41
2022-09-12T17:21:29.668Z,101148.69
2022-09-12T17:23:56.244Z,101151.38
2022-09-12T17:26:22.731Z,101154.03
2022-09-12T17:28:49.532Z,101147.13
2022-09-12T17:31:16.269Z,101154.22
2022-09-12T17:33:43.392Z,101149.00
2022-09-12T17:36:15.069Z,101140.50
2022-09-12T17:38:42.808Z,101141.53
2022-09-12T17:41:18.075Z,101134.84
2022-09-12T17:43:46.276Z,101137.63
2022-09-12T17:46:13.902Z,101136.84
2022-09-12T17:48:40.360Z,101131.63
2022-09-12T17:51:08.889Z,101131.03
2022-09-12T17:53:35.414Z,101123.22
2022-09-12T17:56:06.152Z,101128.78
2022-09-12T17:58:33.184Z,101122.91
2022-09-12T18:01:24.417Z,101130.38
2022-09-12T18:03:54.826Z,101126.88
2022-09-12T18:06:22.921Z,101123.38
2022-09-12T18:08:49.291Z,101118.13
2022-09-12T18:11:15.983Z,101127.06
2022-09-12T18:13:42.491Z,101118.22
2022-09-12T18:16:11.451Z,101128.38
2022-09-12T18:18:38.501Z,101122.28
2022-09-12T18:21:06.952Z,101123.34
2022-09-12T18:23:34.372Z,101125.38
2022-09-12T18:26:03.676Z,101121.00
2022-09-12T18:28:32.849Z,101115.03
2022-09-12T18:30:59.426Z,101114.41
2022-09-12T18:33:25.939Z,101114.50
2022-09-12T18:35:52.330Z,101116.44
2022-09-12T18:38:18.807Z,101105.03
2022-09-12T18:40:45.382Z,101101.63
2022-09-12T18:43:11.786Z,101095.66
2022-09-12T18:45:38.272Z,101087.16
2022-09-12T18:48:06.023Z,101086.38
2022-09-12T18:50:33.094Z,101089.22
2022-09-12T18:52:59.973Z,101085.84
2022-09-12T18:55:26.633Z,101076.22
2022-09-12T18:57:54.704Z,101073.78
2022-09-12T19:00:21.232Z,101077.63
2022-09-12T19:02:47.728Z,101084.94
2022-09-12T19:05:14.134Z,101075.38
2022-09-12T19:07:41.108Z,101075.28
2022-09-12T19:10:08.860Z,101077.31
2022-09-12T19:12:35.293Z,101076.75
2022-09-12T19:15:01.759Z,101075.28
2022-09-12T19:17:28.126Z,101072.78
2022-09-12T19:19:55.388Z,101070.47
2022-09-12T19:22:22.126Z,101068.00
2022-09-12T19:24:48.547Z,101067.34
2022-09-12T19:27:15.984Z,101068.22
2022-09-12T19:29:42.486Z,101060.41
2022-09-12T19:32:08.986Z,101068.59
2022-09-12T19:34:35.463Z,101055.53
2022-09-12T19:37:01.958Z,101045.50
2022-09-12T19:39:28.404Z,101051.00
2022-09-12T19:41:54.765Z,101049.31
2022-09-12T19:44:21.499Z,101041.66
2022-09-12T19:46:48.038Z,101035.38
2022-09-12T19:49:14.667Z,101027.81
2022-09-12T19:51:41.186Z,101026.25
2022-09-12T19:54:07.685Z,101028.91
2022-09-12T19:56:34.246Z,101028.78
2022-09-12T19:59:00.609Z,101028.78
2022-09-12T20:01:30.437Z,101037.59
2022-09-12T20:03:57.872Z,101028.88
2022-09-12T20:06:25.133Z,101027.22
2022-09-12T20:08:51.543Z,101021.38
2022-09-12T20:11:19.807Z,101019.22
2022-09-12T20:13:47.385Z,101019.81
2022-09-12T20:16:21.999Z,101020.31
2022-09-12T20:18:58.195Z,101015.41
2022-09-12T20:21:31.041Z,101007.75
2022-09-12T20:24:12.549Z,101009.94
2022-09-12T20:26:39.740Z,101004.75
2022-09-12T20:29:06.844Z,101001.19
2022-09-12T20:31:35.504Z,101005.75
2022-09-12T20:34:02.386Z,101005.31
2022-09-12T20:36:28.786Z,101000.19
2022-09-12T20:38:58.347Z,101000.03
2022-09-12T20:41:25.966Z,100995.97
2022-09-12T20:43:53.123Z,100989.16
2022-09-12T20:46:23.459Z,100997.16
2022-09-12T20:48:51.214Z,100979.00
2022-09-12T20:51:18.840Z,100979.28
2022-09-12T20:53:45.414Z,100986.59
2022-09-12T20:56:11.807Z,100977.09
2022-09-12T20:58:43.077Z,100966.69
2022-09-12T21:01:11.311Z,100966.59
2022-09-12T21:03:39.228Z,100960.53
2022-09-12T21:06:06.811Z,100959.47
2022-09-12T21:08:33.592Z,100957.03
2022-09-12T21:11:00.014Z,100943.81
2022-09-12T21:13:26.383Z,100949.66
2022-09-12T21:15:59.915Z,100954.94
2022-09-12T21:18:26.544Z,100950.56
2022-09-12T21:20:54.182Z,100939.50
2022-09-12T21:23:21.162Z,100937.72
2022-09-12T21:25:52.382Z,100920.94
2022-09-12T21:28:19.485Z,100914.94
2022-09-12T21:30:48.628Z,100912.31
2022-09-12T21:33:15.434Z,100907.31
2022-09-12T21:35:41.818Z,100902.91
2022-09-12T21:38:08.276Z,100893.25
2022-09-12T21:40:34.639Z,100902.28
2022-09-12T21:43:01.124Z,100897.91
2022-09-12T21:45:27.792Z,100897.91
2022-09-12T21:47:54.205Z,100911.06
2022-09-12T21:50:20.547Z,100910.59
2022-09-12T21:52:47.080Z,100912.50
2022-09-12T21:55:13.935Z,100915.72
2022-09-12T21:57:40.559Z,100909.75
2022-09-12T22:00:10.782Z,100903.69
2022-09-12T22:02:37.231Z,100909.84
2022-09-12T22:05:04.146Z,100914.78
2022-09-12T22:07:30.890Z,100910.63
2022-09-12T22:09:57.327Z,100906.44
2022-09-12T22:12:24.578Z,100900.94
2022-09-12T22:14:51.319Z,100903.69
2022-09-12T22:17:17.747Z,100891.13
2022-09-12T22:19:44.119Z,100883.81
2022-09-12T22:22:29.458Z,100881.06
2022-09-12T22:24:55.991Z,100875.09
2022-09-12T22:27:22.745Z,100882.38
2022-09-12T22:29:50.612Z,100862.13
2022-09-12T22:32:17.392Z,100863.53
2022-09-12T22:34:43.882Z,100861.84
2022-09-12T22:37:13.136Z,100851.50
2022-09-12T22:39:40.580Z,100848.69
2022-09-12T22:42:07.632Z,100844.78
2022-09-12T22:44:34.127Z,100849.81
2022-09-12T22:47:00.665Z,100840.16
2022-09-12T22:49:27.126Z,100837.41
2022-09-12T22:51:53.535Z,100831.72
2022-09-12T22:54:19.954Z,100842.00
2022-09-12T22:56:46.333Z,100839.09
2022-09-12T22:59:13.126Z,100830.56
2022-09-12T23:01:39.461Z,100823.00
2022-09-12T23:04:06.112Z,100821.28
2022-09-12T23:06:32.630Z,100812.41
2022-09-12T23:08:59.056Z,100818.34
2022-09-12T23:11:25.387Z,100816.34
2022-09-12T23:13:51.852Z,100806.78
2022-09-12T23:16:24.754Z,100798.09
2022-09-12T23:18:51.458Z,100798.38
2022-09-12T23:21:20.680Z,100788.06
2022-09-12T23:23:47.413Z,100796.78
2022-09-12T23:26:17.230Z,100796.56
2022-09-12T23:28:49.793Z,100801.13
2022-09-12T23:31:16.827Z,100804.53
2022-09-12T23:33:44.203Z,100799.31
2022-09-12T23:36:14.798Z,100804.25
2022-09-12T23:38:43.331Z,100795.97
2022-09-12T23:41:11.092Z,100798.44
2022-09-12T23:43:37.698Z,100790.09
2022-09-12T23:46:05.111Z,100788.19
2022-09-12T23:48:32.231Z,100785.31
2022-09-12T23:50:59.645Z,100793.09
2022-09-12T23:53:26.254Z,100793.28
2022-09-12T23:55:53.058Z,100787.72
2022-09-12T23:58:21.455Z,100786.63
